sensor_id;sensor_type;location;lat;lon;timestamp;pressure;altitude;pressure_sealevel;temperature;humidity
9415;BME280;4746;35.664;139.738;2023-05-09T00:01:48;100591.06;;;20.63;30.78
9415;BME280;4746;35.664;139.738;2023-05-09T00:04:16;100585.78;;;20.66;30.99
9415;BME280;4746;35.664;139.738;2023-05-09T00:06:43;100582.19;;;20.70;30.78
9415;BME280;4746;35.664;139.738;2023-05-09T00:09:11;100583.91;;;20.71;30.93
9415;BME280;4746;35.664;139.738;2023-05-09T00:11:38;100576.09;;;20.71;30.90
9415;BME280;4746;35.664;139.738;2023-05-09T00:14:06;100578.66;;;20.74;30.80
9415;BME280;4746;35.664;139.738;2023-05-09T00:16:34;100583.84;;;20.73;30.67
9415;BME280;4746;35.664;139.738;2023-05-09T00:19:02;100581.28;;;20.71;31.02
9415;BME280;4746;35.664;139.738;2023-05-09T00:21:30;100577.91;;;20.68;30.36
9415;BME280;4746;35.664;139.738;2023-05-09T00:23:59;100578.84;;;20.65;30.31
9415;BME280;4746;35.664;139.738;2023-05-09T00:26:27;100576.97;;;20.70;30.57
9415;BME280;4746;35.664;139.738;2023-05-09T00:28:55;100578.66;;;20.74;30.18
9415;BME280;4746;35.664;139.738;2023-05-09T00:31:22;100576.84;;;20.76;30.08
9415;BME280;4746;35.664;139.738;2023-05-09T00:33:49;100564.72;;;20.75;30.29
9415;BME280;4746;35.664;139.738;2023-05-09T00:36:17;100564.59;;;20.80;30.34
9415;BME280;4746;35.664;139.738;2023-05-09T00:38:44;100561.03;;;20.82;30.21
9415;BME280;4746;35.664;139.738;2023-05-09T00:41:13;100553.22;;;20.82;30.47
9415;BME280;4746;35.664;139.738;2023-05-09T00:43:40;100558.25;;;20.88;30.39
9415;BME280;4746;35.664;139.738;2023-05-09T00:46:08;100559.06;;;20.90;30.74
9415;BME280;4746;35.664;139.738;2023-05-09T00:48:35;100551.13;;;20.95;30.95
9415;BME280;4746;35.664;139.738;2023-05-09T00:51:03;100549.06;;;21.05;30.41
9415;BME280;4746;35.664;139.738;2023-05-09T00:53:31;100548.91;;;21.10;30.31
9415;BME280;4746;35.664;139.738;2023-05-09T00:56:01;100556.78;;;21.08;30.11
9415;BME280;4746;35.664;139.738;2023-05-09T00:58:29;100556.72;;;21.10;30.04
9415;BME280;4746;35.664;139.738;2023-05-09T01:00:57;100565.47;;;21.09;29.99
9415;BME280;4746;35.664;139.738;2023-05-09T01:03:26;100554.09;;;21.11;29.69
9415;BME280;4746;35.664;139.738;2023-05-09T01:09:23;100563.09;;;21.29;30.17
9415;BME280;4746;35.664;139.738;2023-05-09T01:12:30;100556.91;;;21.33;30.10
9415;BME280;4746;35.664;139.738;2023-05-09T01:15:17;100565.41;;;21.38;29.43
9415;BME280;4746;35.664;139.738;2023-05-09T01:21:12;100543.25;;;21.51;29.92
9415;BME280;4746;35.664;139.738;2023-05-09T01:32:04;100521.53;;;21.77;29.38
9415;BME280;4746;35.664;139.738;2023-05-09T01:34:34;100511.94;;;21.78;29.08
9415;BME280;4746;35.664;139.738;2023-05-09T01:37:06;100503.28;;;21.77;29.13
9415;BME280;4746;35.664;139.738;2023-05-09T01:39:38;100507.69;;;21.75;28.81
9415;BME280;4746;35.664;139.738;2023-05-09T01:42:10;100508.56;;;21.76;28.27
9415;BME280;4746;35.664;139.738;2023-05-09T01:44:42;100498.16;;;21.74;27.90
9415;BME280;4746;35.664;139.738;2023-05-09T01:47:11;100496.56;;;21.70;28.29
9415;BME280;4746;35.664;139.738;2023-05-09T01:49:42;100499.06;;;21.73;28.24
9415;BME280;4746;35.664;139.738;2023-05-09T01:52:15;100493.44;;;21.85;28.54
9415;BME280;4746;35.664;139.738;2023-05-09T01:54:45;100487.09;;;21.92;28.00
9415;BME280;4746;35.664;139.738;2023-05-09T01:57:18;100485.81;;;22.04;28.48
9415;BME280;4746;35.664;139.738;2023-05-09T01:59:48;100483.84;;;22.10;28.13
9415;BME280;4746;35.664;139.738;2023-05-09T02:02:17;100476.81;;;22.12;27.76
9415;BME280;4746;35.664;139.738;2023-05-09T02:04:46;100483.56;;;22.18;27.59
9415;BME280;4746;35.664;139.738;2023-05-09T02:07:15;100478.41;;;22.16;27.39
9415;BME280;4746;35.664;139.738;2023-05-09T02:09:42;100478.63;;;22.10;27.59
9415;BME280;4746;35.664;139.738;2023-05-09T02:12:10;100469.06;;;22.09;27.60
9415;BME280;4746;35.664;139.738;2023-05-09T02:14:37;100471.47;;;22.15;28.19
9415;BME280;4746;35.664;139.738;2023-05-09T02:17:05;100462.66;;;22.19;28.80
9415;BME280;4746;35.664;139.738;2023-05-09T02:19:35;100439.81;;;22.24;28.73
9415;BME280;4746;35.664;139.738;2023-05-09T02:22:03;100441.34;;;22.31;28.46
9415;BME280;4746;35.664;139.738;2023-05-09T02:24:33;100447.75;;;22.45;28.38
9415;BME280;4746;35.664;139.738;2023-05-09T02:27:03;100447.56;;;22.50;28.34
9415;BME280;4746;35.664;139.738;2023-05-09T02:29:43;100446.13;;;22.64;28.06
9415;BME280;4746;35.664;139.738;2023-05-09T02:32:22;100445.88;;;22.72;28.13
9415;BME280;4746;35.664;139.738;2023-05-09T02:34:53;100435.94;;;22.80;28.59
9415;BME280;4746;35.664;139.738;2023-05-09T02:37:23;100439.06;;;22.89;27.99
9415;BME280;4746;35.664;139.738;2023-05-09T02:39:51;100450.81;;;23.01;27.71
9415;BME280;4746;35.664;139.738;2023-05-09T02:42:23;100432.91;;;23.13;27.63
9415;BME280;4746;35.664;139.738;2023-05-09T02:44:55;100422.00;;;23.23;27.71
9415;BME280;4746;35.664;139.738;2023-05-09T02:47:22;100440.72;;;23.34;26.91
9415;BME280;4746;35.664;139.738;2023-05-09T02:49:51;100440.34;;;23.43;26.57
9415;BME280;4746;35.664;139.738;2023-05-09T02:52:19;100439.97;;;23.52;26.15
9415;BME280;4746;35.664;139.738;2023-05-09T02:54:47;100428.41;;;23.58;25.39
9415;BME280;4746;35.664;139.738;2023-05-09T02:57:15;100437.50;;;23.69;24.61
9415;BME280;4746;35.664;139.738;2023-05-09T02:59:43;100434.56;;;23.77;23.75
9415;BME280;4746;35.664;139.738;2023-05-09T03:02:10;100426.41;;;23.84;23.90
9415;BME280;4746;35.664;139.738;2023-05-09T03:04:38;100423.19;;;23.97;23.96
9415;BME280;4746;35.664;139.738;2023-05-09T03:07:06;100416.50;;;24.10;23.40
9415;BME280;4746;35.664;139.738;2023-05-09T03:09:33;100419.13;;;24.29;23.94
9415;BME280;4746;35.664;139.738;2023-05-09T03:12:01;100394.56;;;24.31;22.99
9415;BME280;4746;35.664;139.738;2023-05-09T03:14:29;100404.97;;;24.33;22.79
9415;BME280;4746;35.664;139.738;2023-05-09T03:16:57;100398.38;;;24.44;22.56
9415;BME280;4746;35.664;139.738;2023-05-09T03:19:25;100400.75;;;24.49;22.01
9415;BME280;4746;35.664;139.738;2023-05-09T03:21:52;100393.38;;;24.56;22.54
9415;BME280;4746;35.664;139.738;2023-05-09T03:24:21;100401.88;;;24.61;22.92
9415;BME280;4746;35.664;139.738;2023-05-09T03:26:48;100391.13;;;24.67;22.43
9415;BME280;4746;35.664;139.738;2023-05-09T03:29:16;100387.75;;;24.65;21.81
9415;BME280;4746;35.664;139.738;2023-05-09T03:31:43;100379.34;;;24.76;21.56
9415;BME280;4746;35.664;139.738;2023-05-09T03:34:12;100391.72;;;24.91;21.49
9415;BME280;4746;35.664;139.738;2023-05-09T03:36:44;100383.97;;;25.06;21.67
9415;BME280;4746;35.664;139.738;2023-05-09T03:39:11;100380.91;;;25.15;21.50
9415;BME280;4746;35.664;139.738;2023-05-09T03:41:39;100375.97;;;25.26;22.13
9415;BME280;4746;35.664;139.738;2023-05-09T03:44:07;100376.53;;;25.49;21.55
9415;BME280;4746;35.664;139.738;2023-05-09T03:46:35;100386.66;;;25.74;21.64
9415;BME280;4746;35.664;139.738;2023-05-09T03:49:02;100375.19;;;25.92;21.79
9415;BME280;4746;35.664;139.738;2023-05-09T03:51:30;100367.00;;;25.97;21.08
9415;BME280;4746;35.664;139.738;2023-05-09T03:53:58;100359.72;;;26.02;21.00
9415;BME280;4746;35.664;139.738;2023-05-09T03:56:26;100357.94;;;26.03;20.69
9415;BME280;4746;35.664;139.738;2023-05-09T03:58:53;100349.66;;;26.10;20.79
9415;BME280;4746;35.664;139.738;2023-05-09T04:01:21;100339.56;;;26.34;21.16
9415;BME280;4746;35.664;139.738;2023-05-09T04:03:48;100347.59;;;26.63;20.79
9415;BME280;4746;35.664;139.738;2023-05-09T04:06:18;100345.75;;;26.94;20.67
9415;BME280;4746;35.664;139.738;2023-05-09T04:08:46;100354.66;;;27.23;20.34
9415;BME280;4746;35.664;139.738;2023-05-09T04:11:13;100337.22;;;27.49;19.75
9415;BME280;4746;35.664;139.738;2023-05-09T04:13:41;100331.16;;;27.63;20.50
9415;BME280;4746;35.664;139.738;2023-05-09T04:16:08;100330.41;;;27.75;20.54
9415;BME280;4746;35.664;139.738;2023-05-09T04:18:36;100331.34;;;27.88;20.25
9415;BME280;4746;35.664;139.738;2023-05-09T04:21:05;100315.34;;;28.05;20.08
9415;BME280;4746;35.664;139.738;2023-05-09T04:23:33;100314.97;;;28.10;19.77
9415;BME280;4746;35.664;139.738;2023-05-09T04:26:00;100308.47;;;28.16;19.74
9415;BME280;4746;35.664;139.738;2023-05-09T04:28:28;100313.88;;;28.41;19.80
9415;BME280;4746;35.664;139.738;2023-05-09T04:30:55;100300.31;;;28.73;19.22
9415;BME280;4746;35.664;139.738;2023-05-09T04:33:23;100300.03;;;29.04;19.06
9415;BME280;4746;35.664;139.738;2023-05-09T04:35:51;100301.78;;;29.30;19.23
9415;BME280;4746;35.664;139.738;2023-05-09T04:38:18;100301.16;;;29.51;19.60
9415;BME280;4746;35.664;139.738;2023-05-09T04:40:47;100293.47;;;29.73;19.14
9415;BME280;4746;35.664;139.738;2023-05-09T04:43:14;100299.34;;;30.01;19.07
9415;BME280;4746;35.664;139.738;2023-05-09T04:45:43;100296.91;;;30.11;18.98
9415;BME280;4746;35.664;139.738;2023-05-09T04:48:10;100300.09;;;30.03;18.74
9415;BME280;4746;35.664;139.738;2023-05-09T04:50:38;100295.38;;;29.96;18.64
9415;BME280;4746;35.664;139.738;2023-05-09T04:53:07;100285.25;;;30.13;18.54
9415;BME280;4746;35.664;139.738;2023-05-09T04:55:34;100289.28;;;30.19;17.90
9415;BME280;4746;35.664;139.738;2023-05-09T04:58:02;100290.22;;;30.18;17.71
9415;BME280;4746;35.664;139.738;2023-05-09T05:00:29;100287.81;;;30.15;17.85
9415;BME280;4746;35.664;139.738;2023-05-09T05:02:57;100292.22;;;30.27;18.18
9415;BME280;4746;35.664;139.738;2023-05-09T05:05:25;100286.94;;;30.27;17.59
9415;BME280;4746;35.664;139.738;2023-05-09T05:07:52;100273.13;;;30.46;17.74
9415;BME280;4746;35.664;139.738;2023-05-09T05:10:20;100272.09;;;30.83;17.32
9415;BME280;4746;35.664;139.738;2023-05-09T05:12:47;100272.47;;;31.13;17.43
9415;BME280;4746;35.664;139.738;2023-05-09T05:15:15;100278.69;;;31.46;16.32
9415;BME280;4746;35.664;139.738;2023-05-09T05:17:45;100276.56;;;31.73;16.88
9415;BME280;4746;35.664;139.738;2023-05-09T05:20:12;100266.09;;;31.82;17.33
9415;BME280;4746;35.664;139.738;2023-05-09T05:22:40;100271.03;;;31.98;17.11
9415;BME280;4746;35.664;139.738;2023-05-09T05:25:09;100267.66;;;31.85;17.13
9415;BME280;4746;35.664;139.738;2023-05-09T05:27:37;100266.78;;;31.73;17.66
9415;BME280;4746;35.664;139.738;2023-05-09T05:30:05;100257.88;;;32.18;17.35
9415;BME280;4746;35.664;139.738;2023-05-09T05:32:33;100258.78;;;32.81;17.09
9415;BME280;4746;35.664;139.738;2023-05-09T05:35:00;100256.66;;;33.27;16.56
9415;BME280;4746;35.664;139.738;2023-05-09T05:37:30;100252.75;;;33.81;16.16
9415;BME280;4746;35.664;139.738;2023-05-09T05:39:57;100249.53;;;34.17;15.94
9415;BME280;4746;35.664;139.738;2023-05-09T05:42:25;100244.84;;;34.67;15.66
9415;BME280;4746;35.664;139.738;2023-05-09T05:44:52;100241.19;;;35.16;15.03
9415;BME280;4746;35.664;139.738;2023-05-09T05:47:20;100239.88;;;35.48;14.73
9415;BME280;4746;35.664;139.738;2023-05-09T05:49:47;100228.75;;;35.62;14.53
9415;BME280;4746;35.664;139.738;2023-05-09T05:52:15;100243.22;;;35.86;14.57
9415;BME280;4746;35.664;139.738;2023-05-09T05:54:42;100232.22;;;36.25;14.45
9415;BME280;4746;35.664;139.738;2023-05-09T05:57:09;100224.38;;;36.76;13.74
9415;BME280;4746;35.664;139.738;2023-05-09T05:59:37;100217.22;;;36.94;13.33
9415;BME280;4746;35.664;139.738;2023-05-09T06:02:05;100216.78;;;36.81;13.40
9415;BME280;4746;35.664;139.738;2023-05-09T06:04:32;100226.88;;;36.52;13.67
9415;BME280;4746;35.664;139.738;2023-05-09T06:07:00;100229.38;;;36.71;13.75
9415;BME280;4746;35.664;139.738;2023-05-09T06:09:27;100216.69;;;38.33;12.20
9415;BME280;4746;35.664;139.738;2023-05-09T06:11:54;100222.41;;;40.34;11.58
9415;BME280;4746;35.664;139.738;2023-05-09T06:14:22;100222.97;;;41.62;10.18
9415;BME280;4746;35.664;139.738;2023-05-09T06:16:50;100219.94;;;42.64;10.00
9415;BME280;4746;35.664;139.738;2023-05-09T06:19:18;100220.53;;;43.29;9.55
9415;BME280;4746;35.664;139.738;2023-05-09T06:21:45;100223.22;;;43.90;9.65
9415;BME280;4746;35.664;139.738;2023-05-09T06:24:13;100225.53;;;43.99;9.03
9415;BME280;4746;35.664;139.738;2023-05-09T06:26:40;100214.00;;;44.31;8.98
9415;BME280;4746;35.664;139.738;2023-05-09T06:29:08;100218.03;;;44.54;8.89
9415;BME280;4746;35.664;139.738;2023-05-09T06:31:36;100216.75;;;44.37;9.03
9415;BME280;4746;35.664;139.738;2023-05-09T06:34:07;100212.19;;;43.85;9.23
9415;BME280;4746;35.664;139.738;2023-05-09T06:36:35;100213.34;;;44.16;8.90
9415;BME280;4746;35.664;139.738;2023-05-09T06:39:02;100215.53;;;44.53;8.99
9415;BME280;4746;35.664;139.738;2023-05-09T06:41:30;100215.31;;;43.88;8.91
9415;BME280;4746;35.664;139.738;2023-05-09T06:43:58;100218.81;;;44.35;8.78
9415;BME280;4746;35.664;139.738;2023-05-09T06:46:27;100212.25;;;45.09;8.77
9415;BME280;4746;35.664;139.738;2023-05-09T06:48:54;100215.28;;;45.77;8.10
9415;BME280;4746;35.664;139.738;2023-05-09T06:51:22;100214.78;;;46.49;8.03
9415;BME280;4746;35.664;139.738;2023-05-09T06:53:49;100220.16;;;47.11;7.99
9415;BME280;4746;35.664;139.738;2023-05-09T06:56:17;100219.84;;;47.86;7.66
9415;BME280;4746;35.664;139.738;2023-05-09T06:58:47;100219.38;;;48.36;7.51
9415;BME280;4746;35.664;139.738;2023-05-09T07:01:16;100223.34;;;48.92;7.29
9415;BME280;4746;35.664;139.738;2023-05-09T07:03:44;100227.41;;;49.69;6.77
9415;BME280;4746;35.664;139.738;2023-05-09T07:06:13;100215.75;;;49.85;6.67
9415;BME280;4746;35.664;139.738;2023-05-09T07:08:41;100218.53;;;50.13;6.78
9415;BME280;4746;35.664;139.738;2023-05-09T07:11:09;100215.97;;;50.34;6.57
9415;BME280;4746;35.664;139.738;2023-05-09T07:13:36;100220.19;;;50.42;6.26
9415;BME280;4746;35.664;139.738;2023-05-09T07:16:04;100223.63;;;50.49;6.46
9415;BME280;4746;35.664;139.738;2023-05-09T07:18:31;100205.16;;;50.56;6.45
9415;BME280;4746;35.664;139.738;2023-05-09T07:20:59;100215.81;;;50.85;6.59
9415;BME280;4746;35.664;139.738;2023-05-09T07:23:26;100214.88;;;51.12;6.39
9415;BME280;4746;35.664;139.738;2023-05-09T07:25:57;100211.06;;;51.46;6.25
9415;BME280;4746;35.664;139.738;2023-05-09T07:28:25;100206.31;;;51.42;6.36
9415;BME280;4746;35.664;139.738;2023-05-09T07:30:56;100208.75;;;51.05;6.43
9415;BME280;4746;35.664;139.738;2023-05-09T07:33:23;100221.31;;;50.74;6.29
9415;BME280;4746;35.664;139.738;2023-05-09T07:35:51;100207.28;;;50.82;6.78
9415;BME280;4746;35.664;139.738;2023-05-09T07:38:19;100215.78;;;50.69;6.43
9415;BME280;4746;35.664;139.738;2023-05-09T07:40:46;100220.16;;;50.70;6.81
9415;BME280;4746;35.664;139.738;2023-05-09T07:43:14;100214.44;;;50.27;7.10
9415;BME280;4746;35.664;139.738;2023-05-09T07:45:41;100221.06;;;49.80;7.14
9415;BME280;4746;35.664;139.738;2023-05-09T07:48:09;100221.22;;;49.85;6.68
9415;BME280;4746;35.664;139.738;2023-05-09T07:50:37;100223.56;;;49.93;6.88
9415;BME280;4746;35.664;139.738;2023-05-09T07:53:04;100213.19;;;50.07;7.29
9415;BME280;4746;35.664;139.738;2023-05-09T07:55:32;100219.19;;;49.92;7.19
9415;BME280;4746;35.664;139.738;2023-05-09T07:57:59;100228.56;;;49.96;7.44
9415;BME280;4746;35.664;139.738;2023-05-09T08:00:27;100221.91;;;49.92;7.04
9415;BME280;4746;35.664;139.738;2023-05-09T08:02:54;100222.88;;;49.75;7.31
9415;BME280;4746;35.664;139.738;2023-05-09T08:05:22;100218.41;;;49.57;7.38
9415;BME280;4746;35.664;139.738;2023-05-09T08:07:49;100221.84;;;49.30;7.73
9415;BME280;4746;35.664;139.738;2023-05-09T08:10:17;100225.75;;;49.23;8.01
9415;BME280;4746;35.664;139.738;2023-05-09T08:12:44;100225.38;;;49.08;7.31
9415;BME280;4746;35.664;139.738;2023-05-09T08:15:12;100226.72;;;48.35;7.91
9415;BME280;4746;35.664;139.738;2023-05-09T08:17:39;100224.16;;;48.04;7.92
9415;BME280;4746;35.664;139.738;2023-05-09T08:20:07;100228.56;;;48.05;8.00
9415;BME280;4746;35.664;139.738;2023-05-09T08:22:38;100227.59;;;48.00;8.17
9415;BME280;4746;35.664;139.738;2023-05-09T08:25:07;100221.69;;;47.67;8.27
9415;BME280;4746;35.664;139.738;2023-05-09T08:27:39;100228.88;;;47.44;7.98
9415;BME280;4746;35.664;139.738;2023-05-09T08:30:08;100235.13;;;47.20;8.07
9415;BME280;4746;35.664;139.738;2023-05-09T08:32:36;100225.47;;;46.69;8.65
9415;BME280;4746;35.664;139.738;2023-05-09T08:35:03;100214.88;;;46.30;8.12
9415;BME280;4746;35.664;139.738;2023-05-09T08:37:31;100217.94;;;46.03;8.73
9415;BME280;4746;35.664;139.738;2023-05-09T08:39:59;100221.75;;;45.82;8.48
9415;BME280;4746;35.664;139.738;2023-05-09T08:42:28;100228.09;;;45.31;8.72
9415;BME280;4746;35.664;139.738;2023-05-09T08:44:59;100229.06;;;44.53;8.97
9415;BME280;4746;35.664;139.738;2023-05-09T08:47:28;100223.22;;;43.96;8.95
9415;BME280;4746;35.664;139.738;2023-05-09T08:49:58;100224.53;;;43.39;9.56
9415;BME280;4746;35.664;139.738;2023-05-09T08:52:26;100228.00;;;42.64;9.88
9415;BME280;4746;35.664;139.738;2023-05-09T08:54:54;100223.28;;;41.96;10.03
9415;BME280;4746;35.664;139.738;2023-05-09T08:57:26;100230.78;;;41.57;10.97
9415;BME280;4746;35.664;139.738;2023-05-09T08:59:55;100228.25;;;41.04;10.96
9415;BME280;4746;35.664;139.738;2023-05-09T09:02:23;100226.34;;;40.46;11.37
9415;BME280;4746;35.664;139.738;2023-05-09T09:04:54;100233.00;;;39.97;11.36
9415;BME280;4746;35.664;139.738;2023-05-09T09:07:29;100235.81;;;39.41;12.40
9415;BME280;4746;35.664;139.738;2023-05-09T09:10:02;100243.06;;;38.77;12.89
9415;BME280;4746;35.664;139.738;2023-05-09T09:12:32;100239.66;;;38.02;13.50
9415;BME280;4746;35.664;139.738;2023-05-09T09:15:04;100237.53;;;37.04;14.01
9415;BME280;4746;35.664;139.738;2023-05-09T09:17:43;100240.88;;;35.83;14.75
9415;BME280;4746;35.664;139.738;2023-05-09T09:20:17;100238.91;;;34.45;15.71
9415;BME280;4746;35.664;139.738;2023-05-09T09:22:50;100242.94;;;33.31;16.81
9415;BME280;4746;35.664;139.738;2023-05-09T09:25:18;100244.34;;;32.21;17.67
9415;BME280;4746;35.664;139.738;2023-05-09T09:27:46;100237.59;;;31.30;18.45
9415;BME280;4746;35.664;139.738;2023-05-09T09:30:14;100244.66;;;30.50;19.28
9415;BME280;4746;35.664;139.738;2023-05-09T09:32:42;100234.97;;;29.77;20.16
9415;BME280;4746;35.664;139.738;2023-05-09T09:35:11;100248.28;;;29.14;21.30
9415;BME280;4746;35.664;139.738;2023-05-09T09:37:40;100256.66;;;28.55;21.94
9415;BME280;4746;35.664;139.738;2023-05-09T09:40:11;100255.00;;;28.00;22.58
9415;BME280;4746;35.664;139.738;2023-05-09T09:42:50;100250.88;;;27.54;23.37
9415;BME280;4746;35.664;139.738;2023-05-09T09:45:25;100258.84;;;27.11;23.86
9415;BME280;4746;35.664;139.738;2023-05-09T09:47:55;100264.13;;;26.67;25.06
9415;BME280;4746;35.664;139.738;2023-05-09T09:50:23;100259.31;;;26.28;25.37
9415;BME280;4746;35.664;139.738;2023-05-09T09:52:55;100258.63;;;25.94;25.85
9415;BME280;4746;35.664;139.738;2023-05-09T09:55:25;100266.59;;;25.60;26.55
9415;BME280;4746;35.664;139.738;2023-05-09T09:57:54;100253.47;;;25.28;27.21
9415;BME280;4746;35.664;139.738;2023-05-09T10:00:27;100265.03;;;25.07;27.64
9415;BME280;4746;35.664;139.738;2023-05-09T10:02:59;100268.09;;;24.81;27.91
9415;BME280;4746;35.664;139.738;2023-05-09T10:05:30;100276.25;;;24.58;28.63
9415;BME280;4746;35.664;139.738;2023-05-09T10:08:03;100281.28;;;24.45;29.15
9415;BME280;4746;35.664;139.738;2023-05-09T10:10:35;100276.78;;;24.30;29.04
9415;BME280;4746;35.664;139.738;2023-05-09T10:13:09;100285.03;;;24.21;29.48
9415;BME280;4746;35.664;139.738;2023-05-09T10:15:39;100282.09;;;24.10;30.19
9415;BME280;4746;35.664;139.738;2023-05-09T10:18:09;100281.72;;;23.99;30.51
9415;BME280;4746;35.664;139.738;2023-05-09T10:20:40;100286.75;;;23.85;30.45
9415;BME280;4746;35.664;139.738;2023-05-09T10:23:10;100288.09;;;23.75;30.72
9415;BME280;4746;35.664;139.738;2023-05-09T10:25:46;100297.16;;;23.67;31.05
9415;BME280;4746;35.664;139.738;2023-05-09T10:28:22;100294.91;;;23.59;31.61
9415;BME280;4746;35.664;139.738;2023-05-09T10:31:13;100307.44;;;23.51;31.28
9415;BME280;4746;35.664;139.738;2023-05-09T10:33:48;100310.34;;;23.45;31.62
9415;BME280;4746;35.664;139.738;2023-05-09T10:36:19;100314.34;;;23.34;31.91
9415;BME280;4746;35.664;139.738;2023-05-09T10:38:50;100318.25;;;23.24;32.32
9415;BME280;4746;35.664;139.738;2023-05-09T10:41:20;100303.94;;;23.12;32.54
9415;BME280;4746;35.664;139.738;2023-05-09T10:43:52;100306.16;;;23.02;33.02
9415;BME280;4746;35.664;139.738;2023-05-09T10:46:23;100302.41;;;22.87;33.45
9415;BME280;4746;35.664;139.738;2023-05-09T10:48:53;100300.22;;;22.77;33.75
9415;BME280;4746;35.664;139.738;2023-05-09T10:51:23;100302.03;;;22.75;34.11
9415;BME280;4746;35.664;139.738;2023-05-09T10:53:51;100303.06;;;22.71;34.49
9415;BME280;4746;35.664;139.738;2023-05-09T10:56:33;100307.38;;;22.72;34.32
9415;BME280;4746;35.664;139.738;2023-05-09T10:59:05;100311.34;;;22.60;34.70
9415;BME280;4746;35.664;139.738;2023-05-09T11:01:57;100306.28;;;22.56;34.71
9415;BME280;4746;35.664;139.738;2023-05-09T11:04:30;100309.94;;;22.52;35.09
9415;BME280;4746;35.664;139.738;2023-05-09T11:06:59;100309.94;;;22.52;35.01
9415;BME280;4746;35.664;139.738;2023-05-09T11:09:37;100316.88;;;22.53;35.28
9415;BME280;4746;35.664;139.738;2023-05-09T11:12:14;100315.34;;;22.47;35.32
9415;BME280;4746;35.664;139.738;2023-05-09T11:14:47;100320.13;;;22.37;35.86
9415;BME280;4746;35.664;139.738;2023-05-09T11:22:28;100331.78;;;22.28;36.26
9415;BME280;4746;35.664;139.738;2023-05-09T11:25:07;100337.09;;;22.25;36.21
9415;BME280;4746;35.664;139.738;2023-05-09T11:27:45;100345.84;;;22.24;36.56
9415;BME280;4746;35.664;139.738;2023-05-09T11:30:19;100334.09;;;22.13;36.90
9415;BME280;4746;35.664;139.738;2023-05-09T11:32:52;100327.41;;;22.06;36.77
9415;BME280;4746;35.664;139.738;2023-05-09T11:35:26;100331.09;;;22.00;37.24
9415;BME280;4746;35.664;139.738;2023-05-09T11:38:04;100332.81;;;22.01;37.14
9415;BME280;4746;35.664;139.738;2023-05-09T11:40:33;100337.44;;;21.93;37.51
9415;BME280;4746;35.664;139.738;2023-05-09T11:43:01;100342.22;;;21.82;37.86
9415;BME280;4746;35.664;139.738;2023-05-09T11:45:32;100353.53;;;21.81;37.80
9415;BME280;4746;35.664;139.738;2023-05-09T11:48:00;100348.47;;;21.77;37.71
9415;BME280;4746;35.664;139.738;2023-05-09T11:50:30;100342.44;;;21.76;37.59
9415;BME280;4746;35.664;139.738;2023-05-09T11:52:57;100353.00;;;21.73;37.67
9415;BME280;4746;35.664;139.738;2023-05-09T11:55:25;100351.31;;;21.71;37.61
9415;BME280;4746;35.664;139.738;2023-05-09T11:57:59;100361.88;;;21.68;37.40
9415;BME280;4746;35.664;139.738;2023-05-09T12:00:27;100369.06;;;21.62;37.43
9415;BME280;4746;35.664;139.738;2023-05-09T12:02:55;100359.53;;;21.61;37.31
9415;BME280;4746;35.664;139.738;2023-05-09T12:05:23;100363.84;;;21.62;37.70
9415;BME280;4746;35.664;139.738;2023-05-09T12:07:50;100364.69;;;21.62;37.35
9415;BME280;4746;35.664;139.738;2023-05-09T12:10:22;100361.19;;;21.63;37.56
9415;BME280;4746;35.664;139.738;2023-05-09T12:12:51;100355.31;;;21.57;37.91
9415;BME280;4746;35.664;139.738;2023-05-09T12:15:21;100345.91;;;21.53;38.10
9415;BME280;4746;35.664;139.738;2023-05-09T12:18:03;100347.50;;;21.57;37.77
9415;BME280;4746;35.664;139.738;2023-05-09T12:20:48;100339.78;;;21.54;37.95
9415;BME280;4746;35.664;139.738;2023-05-09T12:23:18;100329.63;;;21.45;37.92
9415;BME280;4746;35.664;139.738;2023-05-09T12:25:56;100333.06;;;21.47;37.84
9415;BME280;4746;35.664;139.738;2023-05-09T12:28:25;100340.28;;;21.39;38.42
9415;BME280;4746;35.664;139.738;2023-05-09T12:30:53;100343.06;;;21.34;38.69
9415;BME280;4746;35.664;139.738;2023-05-09T12:33:22;100335.31;;;21.33;38.77
9415;BME280;4746;35.664;139.738;2023-05-09T12:36:09;100335.06;;;21.39;38.54
9415;BME280;4746;35.664;139.738;2023-05-09T12:38:37;100340.50;;;21.33;38.95
9415;BME280;4746;35.664;139.738;2023-05-09T12:41:07;100343.22;;;21.30;39.25
9415;BME280;4746;35.664;139.738;2023-05-09T12:43:37;100344.09;;;21.29;39.16
9415;BME280;4746;35.664;139.738;2023-05-09T12:46:09;100340.72;;;21.27;39.04
9415;BME280;4746;35.664;139.738;2023-05-09T12:48:40;100344.22;;;21.26;38.92
9415;BME280;4746;35.664;139.738;2023-05-09T12:51:09;100334.75;;;21.23;38.91
9415;BME280;4746;35.664;139.738;2023-05-09T12:53:40;100340.81;;;21.24;38.99
9415;BME280;4746;35.664;139.738;2023-05-09T12:56:16;100341.66;;;21.24;39.01
9415;BME280;4746;35.664;139.738;2023-05-09T12:58:55;100332.19;;;21.22;39.06
9415;BME280;4746;35.664;139.738;2023-05-09T13:01:27;100326.22;;;21.18;39.16
9415;BME280;4746;35.664;139.738;2023-05-09T13:04:03;100319.34;;;21.17;39.16
9415;BME280;4746;35.664;139.738;2023-05-09T13:06:32;100315.16;;;21.12;39.41
9415;BME280;4746;35.664;139.738;2023-05-09T13:09:03;100323.81;;;21.12;39.38
9415;BME280;4746;35.664;139.738;2023-05-09T13:11:35;100326.53;;;21.09;39.11
9415;BME280;4746;35.664;139.738;2023-05-09T13:14:03;100326.66;;;21.06;39.33
9415;BME280;4746;35.664;139.738;2023-05-09T13:16:31;100327.59;;;21.04;39.70
9415;BME280;4746;35.664;139.738;2023-05-09T13:18:59;100323.34;;;21.01;39.62
9415;BME280;4746;35.664;139.738;2023-05-09T13:21:32;100320.69;;;21.03;39.54
9415;BME280;4746;35.664;139.738;2023-05-09T13:24:02;100321.66;;;21.00;39.82
9415;BME280;4746;35.664;139.738;2023-05-09T13:26:30;100322.56;;;20.98;39.68